AAL965 KSEZ-KDEN
Flight info
| Callsign | AAL965 |
|---|---|
| Flight time | 1h 10m |
| Altitude | 35000 |
| Route | INW CRUDD TBARR4 |
| Aircraft | B738/M-SDE2E3FGHIRWXY/LB1 |
Departure
| Time | 2026-04-23 21:13 |
|---|---|
| Airport | Sedona Airport (KSEZ) |
Arrival
| Time | 2026-04-23 22:23 |
|---|---|
| Airport | Denver International Airport (KDEN) |
| Time | Latitude | Longitude | Altitude | Speed | Heading |
|---|---|---|---|---|---|
| 2026-04-23 20:46 | 34.84979 | -111.78865 | 4793 ft | 0 kts | 230° |
| 2026-04-23 21:00 | 34.84964 | -111.78887 | 4793 ft | 4 kts | 230° |
| 2026-04-23 21:00 | 34.84947 | -111.78912 | 4793 ft | 4 kts | 230° |
| 2026-04-23 21:00 | 34.84929 | -111.78938 | 4792 ft | 4 kts | 230° |
| 2026-04-23 21:01 | 34.84921 | -111.78949 | 4792 ft | 1 kts | 230° |
| 2026-04-23 21:08 | 34.84913 | -111.78962 | 4792 ft | 5 kts | 230° |
| 2026-04-23 21:08 | 34.84881 | -111.78981 | 4789 ft | 6 kts | 149° |
| 2026-04-23 21:08 | 34.84886 | -111.78935 | 4788 ft | 7 kts | 52° |
| 2026-04-23 21:08 | 34.84925 | -111.78884 | 4790 ft | 9 kts | 46° |
| 2026-04-23 21:09 | 34.84974 | -111.78822 | 4793 ft | 11 kts | 46° |
| 2026-04-23 21:09 | 34.85026 | -111.78757 | 4798 ft | 11 kts | 45° |
| 2026-04-23 21:09 | 34.85076 | -111.78693 | 4804 ft | 10 kts | 42° |
| 2026-04-23 21:09 | 34.85126 | -111.78634 | 4814 ft | 10 kts | 46° |
| 2026-04-23 21:10 | 34.85173 | -111.78573 | 4818 ft | 10 kts | 47° |
| 2026-04-23 21:10 | 34.85220 | -111.78515 | 4828 ft | 9 kts | 45° |
| 2026-04-23 21:10 | 34.85264 | -111.78460 | 4834 ft | 9 kts | 45° |
| 2026-04-23 21:10 | 34.85309 | -111.78405 | 4833 ft | 9 kts | 46° |
| 2026-04-23 21:11 | 34.85352 | -111.78350 | 4840 ft | 9 kts | 50° |
| 2026-04-23 21:11 | 34.85346 | -111.78282 | 4837 ft | 9 kts | 131° |
| 2026-04-23 21:11 | 34.85294 | -111.78303 | 4837 ft | 9 kts | 227° |
| 2026-04-23 21:11 | 34.85292 | -111.78306 | 4836 ft | 0 kts | 227° |
| 2026-04-23 21:12 | 34.85276 | -111.78328 | 4834 ft | 20 kts | 226° |
| 2026-04-23 21:12 | 34.84961 | -111.78717 | 4797 ft | 106 kts | 226° |
| 2026-04-23 21:12 | 34.84268 | -111.79568 | 4794 ft | 172 kts | 224° |
| 2026-04-23 21:13 | 34.83361 | -111.80709 | 5309 ft | 200 kts | 225° |
| 2026-04-23 21:13 | 34.82347 | -111.81926 | 6208 ft | 199 kts | 222° |
| 2026-04-23 21:13 | 34.81358 | -111.83081 | 7147 ft | 202 kts | 224° |
| 2026-04-23 21:13 | 34.80307 | -111.84343 | 7402 ft | 226 kts | 226° |
| 2026-04-23 21:14 | 34.79138 | -111.85777 | 7616 ft | 251 kts | 226° |
| 2026-04-23 21:14 | 34.77670 | -111.87106 | 7858 ft | 278 kts | 202° |
| 2026-04-23 21:14 | 34.75724 | -111.87410 | 8613 ft | 288 kts | 176° |
| 2026-04-23 21:14 | 34.73725 | -111.87130 | 9521 ft | 291 kts | 175° |
| 2026-04-23 21:15 | 34.71744 | -111.86801 | 10367 ft | 296 kts | 171° |
| 2026-04-23 21:15 | 34.69774 | -111.85766 | 10615 ft | 329 kts | 143° |
| 2026-04-23 21:15 | 34.68349 | -111.83501 | 11101 ft | 349 kts | 115° |
| 2026-04-23 21:15 | 34.67509 | -111.80709 | 11847 ft | 355 kts | 110° |
| 2026-04-23 21:16 | 34.66749 | -111.77812 | 12581 ft | 362 kts | 103° |
| 2026-04-23 21:16 | 34.66711 | -111.74747 | 13281 ft | 368 kts | 78° |
| 2026-04-23 21:16 | 34.67648 | -111.71849 | 13963 ft | 372 kts | 54° |
| 2026-04-23 21:16 | 34.69363 | -111.69521 | 14690 ft | 369 kts | 32° |
| 2026-04-23 21:17 | 34.71525 | -111.67852 | 15427 ft | 370 kts | 26° |
| 2026-04-23 21:17 | 34.73759 | -111.66265 | 16131 ft | 374 kts | 25° |
| 2026-04-23 21:17 | 34.76015 | -111.64641 | 16797 ft | 379 kts | 25° |
| 2026-04-23 21:17 | 34.78194 | -111.62770 | 17403 ft | 393 kts | 41° |
| 2026-04-23 21:18 | 34.79786 | -111.60005 | 18021 ft | 407 kts | 62° |
| 2026-04-23 21:18 | 34.80882 | -111.56844 | 18686 ft | 412 kts | 65° |
| 2026-04-23 21:18 | 34.81959 | -111.53535 | 19274 ft | 418 kts | 66° |
| 2026-04-23 21:18 | 34.83023 | -111.50217 | 19831 ft | 423 kts | 66° |
| 2026-04-23 21:19 | 34.84088 | -111.46900 | 20380 ft | 429 kts | 65° |
| 2026-04-23 21:19 | 34.85202 | -111.43469 | 20996 ft | 432 kts | 65° |
| 2026-04-23 21:19 | 34.86322 | -111.40055 | 21554 ft | 436 kts | 65° |
| 2026-04-23 21:19 | 34.87447 | -111.36649 | 22031 ft | 441 kts | 65° |
| 2026-04-23 21:20 | 34.88600 | -111.33165 | 22508 ft | 446 kts | 65° |
| 2026-04-23 21:20 | 34.89767 | -111.29636 | 23007 ft | 450 kts | 65° |
| 2026-04-23 21:20 | 34.90944 | -111.26077 | 23490 ft | 454 kts | 65° |
| 2026-04-23 21:20 | 34.92127 | -111.22493 | 23953 ft | 458 kts | 65° |
| 2026-04-23 21:21 | 34.93320 | -111.18872 | 24417 ft | 462 kts | 65° |
| 2026-04-23 21:21 | 34.94523 | -111.15221 | 24839 ft | 467 kts | 65° |
| 2026-04-23 21:21 | 34.95741 | -111.11517 | 25229 ft | 472 kts | 65° |
| 2026-04-23 21:21 | 34.96966 | -111.07786 | 25608 ft | 476 kts | 65° |
| 2026-04-23 21:22 | 34.98201 | -111.04021 | 26016 ft | 480 kts | 65° |
| 2026-04-23 21:22 | 34.99445 | -111.00219 | 26406 ft | 484 kts | 65° |
| 2026-04-23 21:22 | 35.00696 | -110.96393 | 26775 ft | 488 kts | 65° |
| 2026-04-23 21:22 | 35.01960 | -110.92524 | 27132 ft | 492 kts | 65° |
| 2026-04-23 21:23 | 35.03230 | -110.88631 | 27517 ft | 495 kts | 65° |
| 2026-04-23 21:23 | 35.04510 | -110.84711 | 27846 ft | 499 kts | 64° |
| 2026-04-23 21:23 | 35.06049 | -110.80925 | 28156 ft | 498 kts | 54° |
| 2026-04-23 21:23 | 35.08007 | -110.77450 | 28493 ft | 496 kts | 45° |
| 2026-04-23 21:24 | 35.10301 | -110.74419 | 28820 ft | 492 kts | 38° |
| 2026-04-23 21:24 | 35.12779 | -110.71528 | 29159 ft | 493 kts | 36° |
| 2026-04-23 21:24 | 35.15294 | -110.68647 | 29464 ft | 496 kts | 36° |
| 2026-04-23 21:24 | 35.17819 | -110.65758 | 29748 ft | 500 kts | 36° |
| 2026-04-23 21:25 | 35.20361 | -110.62828 | 30036 ft | 503 kts | 36° |
| 2026-04-23 21:25 | 35.22904 | -110.59870 | 30332 ft | 506 kts | 37° |
| 2026-04-23 21:25 | 35.25453 | -110.56882 | 30657 ft | 508 kts | 37° |
| 2026-04-23 21:25 | 35.28002 | -110.53879 | 30929 ft | 511 kts | 37° |
| 2026-04-23 21:26 | 35.30568 | -110.50844 | 31255 ft | 511 kts | 37° |
| 2026-04-23 21:26 | 35.33115 | -110.47822 | 31799 ft | 507 kts | 37° |
| 2026-04-23 21:26 | 35.35645 | -110.44818 | 32186 ft | 506 kts | 37° |
| 2026-04-23 21:26 | 35.38179 | -110.41812 | 32453 ft | 508 kts | 37° |
| 2026-04-23 21:27 | 35.40726 | -110.38791 | 32707 ft | 510 kts | 37° |
| 2026-04-23 21:27 | 35.43242 | -110.35807 | 33025 ft | 510 kts | 37° |
| 2026-04-23 21:27 | 35.45793 | -110.32777 | 33367 ft | 509 kts | 37° |
| 2026-04-23 21:27 | 35.48327 | -110.29762 | 33731 ft | 508 kts | 37° |
| 2026-04-23 21:28 | 35.50860 | -110.26745 | 34105 ft | 506 kts | 37° |
| 2026-04-23 21:28 | 35.53382 | -110.23739 | 34469 ft | 504 kts | 37° |
| 2026-04-23 21:28 | 35.55893 | -110.20746 | 34772 ft | 504 kts | 37° |
| 2026-04-23 21:28 | 35.58417 | -110.17735 | 35020 ft | 505 kts | 37° |
| 2026-04-23 21:29 | 35.63494 | -110.11674 | 35038 ft | 510 kts | 37° |
| 2026-04-23 21:29 | 35.68549 | -110.05614 | 35015 ft | 503 kts | 37° |
| 2026-04-23 21:30 | 35.73551 | -109.99608 | 35030 ft | 502 kts | 37° |
| 2026-04-23 21:30 | 35.78549 | -109.93603 | 35035 ft | 503 kts | 37° |
| 2026-04-23 21:31 | 35.83557 | -109.87576 | 35028 ft | 503 kts | 37° |
| 2026-04-23 21:31 | 35.88539 | -109.81563 | 35027 ft | 504 kts | 37° |
| 2026-04-23 21:32 | 35.93551 | -109.75506 | 35029 ft | 504 kts | 37° |
| 2026-04-23 21:32 | 35.98561 | -109.69442 | 35038 ft | 504 kts | 37° |
| 2026-04-23 21:33 | 36.02722 | -109.64396 | 35034 ft | 504 kts | 37° |
| 2026-04-23 21:33 | 36.08574 | -109.57282 | 35035 ft | 505 kts | 37° |
| 2026-04-23 21:34 | 36.12735 | -109.52214 | 35042 ft | 505 kts | 37° |
| 2026-04-23 21:34 | 36.17750 | -109.46101 | 35037 ft | 506 kts | 37° |
| 2026-04-23 21:35 | 36.22765 | -109.39972 | 35031 ft | 507 kts | 37° |
| 2026-04-23 21:35 | 36.27788 | -109.33822 | 35023 ft | 507 kts | 37° |
| 2026-04-23 21:36 | 36.35307 | -109.24592 | 35028 ft | 507 kts | 37° |
| 2026-04-23 21:37 | 36.40339 | -109.18402 | 35028 ft | 507 kts | 37° |
| 2026-04-23 21:37 | 36.45343 | -109.12235 | 35025 ft | 507 kts | 37° |
| 2026-04-23 21:38 | 36.50346 | -109.06056 | 35022 ft | 507 kts | 37° |
| 2026-04-23 21:38 | 36.55311 | -108.99911 | 35024 ft | 507 kts | 37° |
| 2026-04-23 21:39 | 36.60310 | -108.93715 | 35024 ft | 507 kts | 37° |
| 2026-04-23 21:39 | 36.65304 | -108.87513 | 35021 ft | 507 kts | 37° |
| 2026-04-23 21:40 | 36.70299 | -108.81295 | 35022 ft | 507 kts | 37° |
| 2026-04-23 21:40 | 36.75293 | -108.75068 | 35018 ft | 508 kts | 37° |
| 2026-04-23 21:41 | 36.80288 | -108.68827 | 35021 ft | 508 kts | 37° |
| 2026-04-23 21:41 | 36.85293 | -108.62562 | 35015 ft | 508 kts | 37° |
| 2026-04-23 21:42 | 36.90291 | -108.56293 | 35019 ft | 509 kts | 37° |
| 2026-04-23 21:42 | 36.95283 | -108.50018 | 35025 ft | 509 kts | 37° |
| 2026-04-23 21:43 | 37.00276 | -108.43730 | 35016 ft | 509 kts | 37° |
| 2026-04-23 21:43 | 37.05235 | -108.37473 | 35021 ft | 509 kts | 37° |
| 2026-04-23 21:44 | 37.10222 | -108.31166 | 35019 ft | 509 kts | 37° |
| 2026-04-23 21:44 | 37.15203 | -108.24856 | 35014 ft | 508 kts | 37° |
| 2026-04-23 21:45 | 37.20162 | -108.18561 | 35021 ft | 507 kts | 37° |
| 2026-04-23 21:45 | 37.25087 | -108.12299 | 35015 ft | 506 kts | 37° |
| 2026-04-23 21:46 | 37.30034 | -108.05994 | 35022 ft | 506 kts | 36° |
| 2026-04-23 21:46 | 37.34965 | -107.99697 | 35016 ft | 505 kts | 37° |
| 2026-04-23 21:47 | 37.39893 | -107.93392 | 35021 ft | 505 kts | 37° |
| 2026-04-23 21:47 | 37.44817 | -107.87082 | 35018 ft | 504 kts | 37° |
| 2026-04-23 21:48 | 37.49733 | -107.80769 | 35012 ft | 505 kts | 37° |
| 2026-04-23 21:48 | 37.54642 | -107.74446 | 35035 ft | 505 kts | 37° |
| 2026-04-23 21:49 | 37.59559 | -107.68102 | 35020 ft | 506 kts | 37° |
| 2026-04-23 21:49 | 37.64451 | -107.61785 | 35028 ft | 506 kts | 37° |
| 2026-04-23 21:50 | 37.69367 | -107.55411 | 35032 ft | 507 kts | 37° |
| 2026-04-23 21:50 | 37.74285 | -107.49034 | 35042 ft | 506 kts | 37° |
| 2026-04-23 21:51 | 37.79314 | -107.42809 | 35034 ft | 504 kts | 33° |
| 2026-04-23 21:51 | 37.84447 | -107.36877 | 35029 ft | 502 kts | 33° |
| 2026-04-23 21:52 | 37.89593 | -107.30895 | 35018 ft | 503 kts | 33° |
| 2026-04-23 21:52 | 37.94711 | -107.24856 | 35014 ft | 502 kts | 34° |
| 2026-04-23 21:53 | 37.99811 | -107.18806 | 35007 ft | 502 kts | 34° |
| 2026-04-23 21:53 | 38.04896 | -107.12759 | 35010 ft | 500 kts | 34° |
| 2026-04-23 21:54 | 38.09970 | -107.06717 | 35003 ft | 499 kts | 34° |
| 2026-04-23 21:54 | 38.15007 | -107.00667 | 34991 ft | 500 kts | 37° |
| 2026-04-23 21:55 | 38.19638 | -106.93973 | 35005 ft | 506 kts | 43° |
| 2026-04-23 21:55 | 38.24068 | -106.87014 | 34998 ft | 505 kts | 44° |
| 2026-04-23 21:56 | 38.28441 | -106.80200 | 34588 ft | 494 kts | 43° |
| 2026-04-23 21:56 | 38.30624 | -106.76846 | 34397 ft | 483 kts | 43° |
| 2026-04-23 21:56 | 38.32759 | -106.73579 | 34507 ft | 481 kts | 42° |
| 2026-04-23 21:57 | 38.37122 | -106.66952 | 34581 ft | 494 kts | 43° |
| 2026-04-23 21:57 | 38.41594 | -106.60134 | 34590 ft | 508 kts | 43° |
| 2026-04-23 21:58 | 38.46140 | -106.53155 | 34605 ft | 513 kts | 43° |
| 2026-04-23 21:58 | 38.50693 | -106.46139 | 34652 ft | 514 kts | 44° |
| 2026-04-23 21:59 | 38.55227 | -106.39147 | 34648 ft | 514 kts | 44° |
| 2026-04-23 21:59 | 38.59781 | -106.32112 | 34497 ft | 514 kts | 44° |
| 2026-04-23 22:00 | 38.64262 | -106.25166 | 33818 ft | 500 kts | 43° |
| 2026-04-23 22:00 | 38.66471 | -106.21754 | 33395 ft | 496 kts | 43° |
| 2026-04-23 22:00 | 38.68675 | -106.18379 | 32942 ft | 492 kts | 43° |
| 2026-04-23 22:00 | 38.70869 | -106.15033 | 32509 ft | 489 kts | 43° |
| 2026-04-23 22:01 | 38.73047 | -106.11712 | 32101 ft | 485 kts | 43° |
| 2026-04-23 22:01 | 38.75212 | -106.08399 | 31705 ft | 481 kts | 43° |
| 2026-04-23 22:01 | 38.77344 | -106.05126 | 31289 ft | 478 kts | 43° |
| 2026-04-23 22:01 | 38.79470 | -106.01875 | 30897 ft | 474 kts | 43° |
| 2026-04-23 22:02 | 38.81567 | -105.98664 | 30421 ft | 465 kts | 43° |
| 2026-04-23 22:02 | 38.83643 | -105.95475 | 29634 ft | 465 kts | 44° |
| 2026-04-23 22:02 | 38.85709 | -105.92292 | 28944 ft | 462 kts | 44° |
| 2026-04-23 22:02 | 38.87751 | -105.89141 | 28429 ft | 453 kts | 45° |
| 2026-04-23 22:03 | 38.89715 | -105.86104 | 27975 ft | 443 kts | 45° |
| 2026-04-23 22:03 | 38.91663 | -105.83070 | 27457 ft | 436 kts | 46° |
| 2026-04-23 22:03 | 38.93572 | -105.80089 | 26904 ft | 430 kts | 46° |
| 2026-04-23 22:03 | 38.95457 | -105.77142 | 26349 ft | 423 kts | 47° |
| 2026-04-23 22:04 | 38.97308 | -105.74254 | 25935 ft | 413 kts | 47° |
| 2026-04-23 22:04 | 38.99114 | -105.71434 | 25535 ft | 403 kts | 47° |
| 2026-04-23 22:04 | 39.00871 | -105.68688 | 25157 ft | 393 kts | 48° |
| 2026-04-23 22:04 | 39.02590 | -105.65999 | 24785 ft | 385 kts | 48° |
| 2026-04-23 22:05 | 39.04309 | -105.63359 | 24421 ft | 384 kts | 47° |
| 2026-04-23 22:05 | 39.06032 | -105.60718 | 24055 ft | 388 kts | 49° |
| 2026-04-23 22:05 | 39.07751 | -105.58028 | 23670 ft | 390 kts | 49° |
| 2026-04-23 22:05 | 39.09474 | -105.55324 | 23267 ft | 390 kts | 49° |
| 2026-04-23 22:06 | 39.11192 | -105.52637 | 22872 ft | 388 kts | 49° |
| 2026-04-23 22:06 | 39.12905 | -105.49963 | 22473 ft | 386 kts | 49° |
| 2026-04-23 22:06 | 39.14611 | -105.47301 | 22088 ft | 385 kts | 49° |
| 2026-04-23 22:06 | 39.16311 | -105.44630 | 21725 ft | 383 kts | 50° |
| 2026-04-23 22:07 | 39.17979 | -105.41988 | 21335 ft | 378 kts | 50° |
| 2026-04-23 22:07 | 39.19615 | -105.39362 | 20968 ft | 376 kts | 50° |
| 2026-04-23 22:07 | 39.21249 | -105.36768 | 20606 ft | 371 kts | 50° |
| 2026-04-23 22:07 | 39.22847 | -105.34232 | 20247 ft | 367 kts | 50° |
| 2026-04-23 22:08 | 39.24446 | -105.31687 | 20036 ft | 364 kts | 50° |
| 2026-04-23 22:08 | 39.26042 | -105.29143 | 20003 ft | 360 kts | 50° |
| 2026-04-23 22:08 | 39.27596 | -105.26663 | 19976 ft | 348 kts | 50° |
| 2026-04-23 22:08 | 39.29204 | -105.24419 | 19950 ft | 333 kts | 37° |
| 2026-04-23 22:09 | 39.31025 | -105.22689 | 19958 ft | 319 kts | 32° |
| 2026-04-23 22:09 | 39.32815 | -105.21091 | 19935 ft | 307 kts | 32° |
| 2026-04-23 22:09 | 39.34536 | -105.19549 | 19922 ft | 295 kts | 32° |
| 2026-04-23 22:09 | 39.36189 | -105.18049 | 19907 ft | 285 kts | 32° |
| 2026-04-23 22:10 | 39.37792 | -105.16579 | 19914 ft | 284 kts | 33° |
| 2026-04-23 22:10 | 39.39434 | -105.15068 | 19936 ft | 295 kts | 33° |
| 2026-04-23 22:10 | 39.41121 | -105.13505 | 19928 ft | 300 kts | 33° |
| 2026-04-23 22:10 | 39.42812 | -105.11933 | 19923 ft | 299 kts | 33° |
| 2026-04-23 22:11 | 39.44497 | -105.10361 | 19913 ft | 298 kts | 33° |
| 2026-04-23 22:11 | 39.46177 | -105.08786 | 19897 ft | 297 kts | 36° |
| 2026-04-23 22:11 | 39.47712 | -105.06999 | 19893 ft | 297 kts | 44° |
| 2026-04-23 22:11 | 39.49134 | -105.05062 | 19895 ft | 296 kts | 45° |
| 2026-04-23 22:12 | 39.50533 | -105.03116 | 19881 ft | 292 kts | 44° |
| 2026-04-23 22:12 | 39.51932 | -105.01204 | 19892 ft | 296 kts | 45° |
| 2026-04-23 22:12 | 39.53334 | -104.99243 | 19889 ft | 301 kts | 46° |
| 2026-04-23 22:12 | 39.54767 | -104.97247 | 19884 ft | 302 kts | 45° |
| 2026-04-23 22:13 | 39.56200 | -104.95268 | 19863 ft | 301 kts | 45° |
| 2026-04-23 22:13 | 39.57636 | -104.93292 | 19863 ft | 300 kts | 45° |
| 2026-04-23 22:13 | 39.59065 | -104.91331 | 19856 ft | 299 kts | 45° |
| 2026-04-23 22:13 | 39.60497 | -104.89370 | 19845 ft | 297 kts | 45° |
| 2026-04-23 22:14 | 39.61914 | -104.87430 | 19575 ft | 295 kts | 45° |
| 2026-04-23 22:14 | 39.63324 | -104.85501 | 19207 ft | 293 kts | 45° |
| 2026-04-23 22:14 | 39.64733 | -104.83574 | 18744 ft | 294 kts | 45° |
| 2026-04-23 22:14 | 39.66139 | -104.81652 | 18334 ft | 293 kts | 44° |
| 2026-04-23 22:15 | 39.67532 | -104.79738 | 17980 ft | 289 kts | 44° |
| 2026-04-23 22:15 | 39.68912 | -104.77849 | 17538 ft | 289 kts | 44° |
| 2026-04-23 22:15 | 39.70345 | -104.75918 | 16562 ft | 308 kts | 43° |
| 2026-04-23 22:15 | 39.71913 | -104.73884 | 15551 ft | 324 kts | 43° |
| 2026-04-23 22:16 | 39.73525 | -104.71796 | 14861 ft | 327 kts | 42° |
| 2026-04-23 22:16 | 39.75128 | -104.69709 | 14384 ft | 323 kts | 42° |
| 2026-04-23 22:16 | 39.76697 | -104.67655 | 13912 ft | 319 kts | 44° |
| 2026-04-23 22:16 | 39.77934 | -104.65279 | 13338 ft | 322 kts | 69° |
| 2026-04-23 22:17 | 39.78292 | -104.62416 | 12854 ft | 320 kts | 88° |
| 2026-04-23 22:17 | 39.78293 | -104.59537 | 12390 ft | 316 kts | 89° |
| 2026-04-23 22:17 | 39.78281 | -104.57645 | 12039 ft | 315 kts | 89° |
| 2026-04-23 22:17 | 39.78343 | -104.53997 | 11853 ft | 293 kts | 76° |
| 2026-04-23 22:18 | 39.79159 | -104.51705 | 11747 ft | 270 kts | 52° |
| 2026-04-23 22:18 | 39.80202 | -104.49751 | 11648 ft | 256 kts | 51° |
| 2026-04-23 22:18 | 39.81197 | -104.47873 | 11566 ft | 247 kts | 51° |
| 2026-04-23 22:18 | 39.81832 | -104.46671 | 11407 ft | 240 kts | 51° |
| 2026-04-23 22:19 | 39.82772 | -104.44890 | 10883 ft | 239 kts | 51° |
| 2026-04-23 22:19 | 39.83911 | -104.43488 | 10634 ft | 210 kts | 17° |
| 2026-04-23 22:19 | 39.85212 | -104.43424 | 10471 ft | 177 kts | 336° |
| 2026-04-23 22:19 | 39.86187 | -104.44353 | 9814 ft | 176 kts | 311° |
| 2026-04-23 22:20 | 39.86837 | -104.45708 | 9156 ft | 178 kts | 297° |
| 2026-04-23 22:20 | 39.87350 | -104.47154 | 8488 ft | 176 kts | 295° |
| 2026-04-23 22:20 | 39.87586 | -104.48730 | 7820 ft | 179 kts | 279° |
| 2026-04-23 22:20 | 39.87648 | -104.50363 | 7166 ft | 181 kts | 274° |
| 2026-04-23 22:21 | 39.87657 | -104.51946 | 6844 ft | 164 kts | 272° |
| 2026-04-23 22:21 | 39.87664 | -104.53375 | 6626 ft | 156 kts | 273° |
| 2026-04-23 22:21 | 39.87674 | -104.54770 | 6436 ft | 154 kts | 272° |
| 2026-04-23 22:21 | 39.87684 | -104.56149 | 6239 ft | 154 kts | 272° |
| 2026-04-23 22:22 | 39.87693 | -104.57535 | 6020 ft | 152 kts | 272° |
| 2026-04-23 22:22 | 39.87703 | -104.58920 | 5829 ft | 154 kts | 272° |
| 2026-04-23 22:22 | 39.87712 | -104.60304 | 5626 ft | 153 kts | 272° |
| 2026-04-23 22:22 | 39.87722 | -104.61690 | 5397 ft | 153 kts | 272° |
| 2026-04-23 22:23 | 39.87735 | -104.63044 | 5323 ft | 144 kts | 272° |
| 2026-04-23 22:23 | 39.87744 | -104.64181 | 5332 ft | 97 kts | 269° |
| 2026-04-23 22:23 | 39.87702 | -104.64498 | 5338 ft | 11 kts | 249° |
| 2026-04-23 22:23 | 39.87673 | -104.64581 | 5340 ft | 7 kts | 242° |
| 2026-04-23 22:24 | 39.87666 | -104.64599 | 5339 ft | 0 kts | 242° |
| 2026-04-23 22:26 | 39.87665 | -104.64601 | 5339 ft | 1 kts | 242° |
| 2026-04-23 22:27 | 39.87661 | -104.64611 | 5339 ft | 2 kts | 242° |
| 2026-04-23 22:27 | 39.87654 | -104.64628 | 5340 ft | 2 kts | 242° |
| 2026-04-23 22:27 | 39.87646 | -104.64647 | 5340 ft | 2 kts | 242° |
| 2026-04-23 22:27 | 39.87638 | -104.64666 | 5341 ft | 2 kts | 242° |
| 2026-04-23 22:28 | 39.87631 | -104.64683 | 5341 ft | 2 kts | 242° |
| 2026-04-23 22:28 | 39.87624 | -104.64701 | 5342 ft | 2 kts | 242° |
| 2026-04-23 22:28 | 39.87616 | -104.64720 | 5342 ft | 3 kts | 242° |
| 2026-04-23 22:28 | 39.87608 | -104.64741 | 5345 ft | 3 kts | 244° |
| 2026-04-23 22:29 | 39.87600 | -104.64763 | 5344 ft | 3 kts | 245° |
| 2026-04-23 22:29 | 39.87591 | -104.64795 | 5345 ft | 5 kts | 253° |
| 2026-04-23 22:29 | 39.87584 | -104.64843 | 5345 ft | 6 kts | 263° |
| 2026-04-23 22:29 | 39.87582 | -104.64902 | 5346 ft | 7 kts | 269° |
| 2026-04-23 22:30 | 39.87582 | -104.64968 | 5348 ft | 8 kts | 271° |
| 2026-04-23 22:30 | 39.87583 | -104.65038 | 5348 ft | 8 kts | 271° |
| 2026-04-23 22:30 | 39.87584 | -104.65114 | 5349 ft | 9 kts | 271° |
| 2026-04-23 22:30 | 39.87583 | -104.65200 | 5350 ft | 10 kts | 270° |
| 2026-04-23 22:31 | 39.87584 | -104.65298 | 5351 ft | 12 kts | 270° |
| 2026-04-23 22:31 | 39.87584 | -104.65407 | 5352 ft | 13 kts | 270° |
| 2026-04-23 22:31 | 39.87585 | -104.65528 | 5353 ft | 14 kts | 270° |
| 2026-04-23 22:31 | 39.87587 | -104.65659 | 5354 ft | 15 kts | 271° |
| 2026-04-23 22:32 | 39.87589 | -104.65801 | 5355 ft | 16 kts | 271° |
| 2026-04-23 22:32 | 39.87589 | -104.65945 | 5356 ft | 16 kts | 270° |
| 2026-04-23 22:32 | 39.87590 | -104.66084 | 5359 ft | 15 kts | 270° |
| 2026-04-23 22:32 | 39.87566 | -104.66206 | 5361 ft | 14 kts | 209° |
| 2026-04-23 22:33 | 39.87547 | -104.66213 | 5360 ft | 1 kts | 186° |
| 2026-04-23 22:33 | 39.87528 | -104.66214 | 5361 ft | 7 kts | 182° |
| 2026-04-23 22:33 | 39.87467 | -104.66215 | 5362 ft | 9 kts | 181° |
| 2026-04-23 22:33 | 39.87408 | -104.66216 | 5362 ft | 8 kts | 181° |
| 2026-04-23 22:34 | 39.87350 | -104.66217 | 5362 ft | 8 kts | 181° |
| 2026-04-23 22:34 | 39.87293 | -104.66218 | 5361 ft | 9 kts | 181° |
| 2026-04-23 22:34 | 39.87219 | -104.66220 | 5363 ft | 13 kts | 181° |
| 2026-04-23 22:34 | 39.87113 | -104.66221 | 5366 ft | 17 kts | 179° |
| 2026-04-23 22:35 | 39.86995 | -104.66221 | 5370 ft | 17 kts | 180° |
| 2026-04-23 22:35 | 39.86881 | -104.66222 | 5372 ft | 16 kts | 180° |
| 2026-04-23 22:35 | 39.86771 | -104.66223 | 5377 ft | 15 kts | 180° |
| 2026-04-23 22:35 | 39.86668 | -104.66225 | 5378 ft | 15 kts | 180° |
| 2026-04-23 22:36 | 39.86567 | -104.66225 | 5384 ft | 14 kts | 180° |
| 2026-04-23 22:36 | 39.86508 | -104.66247 | 5382 ft | 8 kts | 242° |
| 2026-04-23 22:36 | 39.86501 | -104.66317 | 5385 ft | 8 kts | 268° |
| 2026-04-23 22:36 | 39.86502 | -104.66389 | 5382 ft | 8 kts | 272° |
| 2026-04-23 22:37 | 39.86504 | -104.66464 | 5386 ft | 8 kts | 272° |
| 2026-04-23 22:37 | 39.86486 | -104.66529 | 5384 ft | 8 kts | 226° |
| 2026-04-23 22:37 | 39.86470 | -104.66597 | 5386 ft | 8 kts | 259° |
| 2026-04-23 22:37 | 39.86467 | -104.66644 | 5381 ft | 0 kts | 268° |
| 2026-04-23 22:38 | 39.86467 | -104.66665 | 5386 ft | 6 kts | 268° |
| 2026-04-23 22:38 | 39.86439 | -104.66720 | 5384 ft | 8 kts | 196° |
| 2026-04-23 22:39 | 39.86386 | -104.66724 | 5383 ft | 5 kts | 181° |
| 2026-04-23 22:39 | 39.86356 | -104.66724 | 5384 ft | 3 kts | 180° |
| 2026-04-23 22:39 | 39.86355 | -104.66724 | 5384 ft | 1 kts | 180° |
| 2026-04-23 22:39 | 39.86353 | -104.66724 | 5384 ft | 0 kts | 180° |